sensor_id;sensor_type;location;lat;lon;timestamp;pressure;altitude;pressure_sealevel;temperature;humidity
54936;BME280;40838;50.676;7.838;2022-12-07T00:00:20;98390.13;;;2.33;nan
54936;BME280;40838;50.676;7.838;2022-12-07T00:02:46;98397.94;;;2.33;nan
54936;BME280;40838;50.676;7.838;2022-12-07T00:05:14;98389.31;;;2.32;nan
54936;BME280;40838;50.676;7.838;2022-12-07T00:07:46;98388.97;;;2.20;nan
54936;BME280;40838;50.676;7.838;2022-12-07T00:10:13;98385.56;;;2.20;nan
54936;BME280;40838;50.676;7.838;2022-12-07T00:12:41;98388.94;;;2.35;nan
54936;BME280;40838;50.676;7.838;2022-12-07T00:15:09;98384.28;;;2.31;nan
54936;BME280;40838;50.676;7.838;2022-12-07T00:17:36;98387.72;;;2.31;nan
54936;BME280;40838;50.676;7.838;2022-12-07T00:20:04;98392.34;;;2.36;nan
54936;BME280;40838;50.676;7.838;2022-12-07T00:22:31;98377.84;;;2.26;nan
54936;BME280;40838;50.676;7.838;2022-12-07T00:24:58;98380.88;;;2.30;nan
54936;BME280;40838;50.676;7.838;2022-12-07T00:27:25;98380.00;;;2.23;nan
54936;BME280;40838;50.676;7.838;2022-12-07T00:29:54;98376.59;;;2.08;nan
54936;BME280;40838;50.676;7.838;2022-12-07T00:32:21;98372.94;;;2.17;nan
54936;BME280;40838;50.676;7.838;2022-12-07T00:34:48;98365.56;;;2.20;nan
54936;BME280;40838;50.676;7.838;2022-12-07T00:37:15;98373.91;;;2.16;nan
54936;BME280;40838;50.676;7.838;2022-12-07T00:39:42;98376.25;;;2.11;nan
54936;BME280;40838;50.676;7.838;2022-12-07T00:42:08;98377.06;;;2.11;nan
54936;BME280;40838;50.676;7.838;2022-12-07T00:44:35;98365.91;;;2.17;nan
54936;BME280;40838;50.676;7.838;2022-12-07T00:47:06;98361.31;;;2.34;nan
54936;BME280;40838;50.676;7.838;2022-12-07T00:49:36;98353.28;;;2.14;nan
54936;BME280;40838;50.676;7.838;2022-12-07T00:52:03;98350.00;;;2.27;nan
54936;BME280;40838;50.676;7.838;2022-12-07T00:54:30;98350.31;;;2.17;nan
54936;BME280;40838;50.676;7.838;2022-12-07T00:56:57;98340.94;;;2.23;nan
54936;BME280;40838;50.676;7.838;2022-12-07T00:59:23;98348.75;;;2.23;nan
54936;BME280;40838;50.676;7.838;2022-12-07T01:01:50;98349.66;;;2.15;nan
54936;BME280;40838;50.676;7.838;2022-12-07T01:04:18;98343.66;;;2.15;nan
54936;BME280;40838;50.676;7.838;2022-12-07T01:06:46;98350.09;;;2.19;nan
54936;BME280;40838;50.676;7.838;2022-12-07T01:09:13;98348.56;;;2.24;nan
54936;BME280;40838;50.676;7.838;2022-12-07T01:11:40;98338.88;;;2.18;nan
54936;BME280;40838;50.676;7.838;2022-12-07T01:14:08;98339.25;;;2.15;nan
54936;BME280;40838;50.676;7.838;2022-12-07T01:16:36;98339.31;;;2.22;nan
54936;BME280;40838;50.676;7.838;2022-12-07T01:19:02;98342.97;;;2.27;nan
54936;BME280;40838;50.676;7.838;2022-12-07T01:21:40;98342.13;;;2.20;nan
54936;BME280;40838;50.676;7.838;2022-12-07T01:24:10;98333.84;;;2.32;nan
54936;BME280;40838;50.676;7.838;2022-12-07T01:26:37;98339.63;;;2.34;nan
54936;BME280;40838;50.676;7.838;2022-12-07T01:29:04;98339.41;;;2.29;nan
54936;BME280;40838;50.676;7.838;2022-12-07T01:31:31;98341.91;;;2.22;nan
54936;BME280;40838;50.676;7.838;2022-12-07T01:33:59;98338.47;;;2.36;nan
54936;BME280;40838;50.676;7.838;2022-12-07T01:36:28;98344.25;;;2.32;nan
54936;BME280;40838;50.676;7.838;2022-12-07T01:38:59;98342.34;;;2.40;nan
54936;BME280;40838;50.676;7.838;2022-12-07T01:41:28;98332.41;;;2.50;nan
54936;BME280;40838;50.676;7.838;2022-12-07T01:44:17;98341.97;;;2.43;nan
54936;BME280;40838;50.676;7.838;2022-12-07T01:46:46;98338.72;;;2.41;nan
54936;BME280;40838;50.676;7.838;2022-12-07T01:49:17;98329.31;;;2.40;nan
54936;BME280;40838;50.676;7.838;2022-12-07T01:51:47;98336.88;;;2.35;nan
54936;BME280;40838;50.676;7.838;2022-12-07T01:54:17;98335.13;;;2.42;nan
54936;BME280;40838;50.676;7.838;2022-12-07T01:56:49;98328.88;;;2.58;nan
54936;BME280;40838;50.676;7.838;2022-12-07T01:59:18;98317.94;;;2.48;nan
54936;BME280;40838;50.676;7.838;2022-12-07T02:01:52;98325.16;;;2.46;nan
54936;BME280;40838;50.676;7.838;2022-12-07T02:04:21;98320.56;;;2.48;nan
54936;BME280;40838;50.676;7.838;2022-12-07T02:06:49;98313.19;;;2.52;nan
54936;BME280;40838;50.676;7.838;2022-12-07T02:09:18;98312.38;;;2.51;nan
54936;BME280;40838;50.676;7.838;2022-12-07T02:11:45;98317.41;;;2.53;nan
54936;BME280;40838;50.676;7.838;2022-12-07T02:14:12;98309.03;;;2.57;nan
54936;BME280;40838;50.676;7.838;2022-12-07T02:16:46;98310.50;;;2.45;nan
54936;BME280;40838;50.676;7.838;2022-12-07T02:19:44;98306.63;;;2.56;nan
54936;BME280;40838;50.676;7.838;2022-12-07T02:22:33;98307.78;;;2.53;nan
54936;BME280;40838;50.676;7.838;2022-12-07T02:25:14;98303.00;;;2.57;nan
54936;BME280;40838;50.676;7.838;2022-12-07T02:27:47;98307.25;;;2.58;nan
54936;BME280;40838;50.676;7.838;2022-12-07T02:30:20;98304.84;;;2.63;nan
54936;BME280;40838;50.676;7.838;2022-12-07T02:32:54;98302.03;;;2.58;nan
54936;BME280;40838;50.676;7.838;2022-12-07T02:35:28;98301.16;;;2.50;nan
54936;BME280;40838;50.676;7.838;2022-12-07T02:38:02;98302.63;;;2.60;nan
54936;BME280;40838;50.676;7.838;2022-12-07T02:40:34;98307.47;;;2.63;nan
54936;BME280;40838;50.676;7.838;2022-12-07T02:43:07;98295.75;;;2.73;nan
54936;BME280;40838;50.676;7.838;2022-12-07T02:45:39;98296.91;;;2.71;nan
54936;BME280;40838;50.676;7.838;2022-12-07T02:48:08;98298.84;;;2.84;nan
54936;BME280;40838;50.676;7.838;2022-12-07T02:50:36;98298.59;;;2.79;nan
54936;BME280;40838;50.676;7.838;2022-12-07T02:53:03;98301.19;;;2.79;nan
54936;BME280;40838;50.676;7.838;2022-12-07T02:55:37;98298.25;;;2.88;nan
54936;BME280;40838;50.676;7.838;2022-12-07T02:58:30;98299.28;;;2.87;nan
54936;BME280;40838;50.676;7.838;2022-12-07T03:01:06;98297.72;;;2.93;nan
54936;BME280;40838;50.676;7.838;2022-12-07T03:03:40;98292.63;;;2.85;nan
54936;BME280;40838;50.676;7.838;2022-12-07T03:06:16;98292.25;;;2.88;nan
54936;BME280;40838;50.676;7.838;2022-12-07T03:08:55;98290.88;;;2.92;nan
54936;BME280;40838;50.676;7.838;2022-12-07T03:11:29;98293.03;;;2.88;nan
54936;BME280;40838;50.676;7.838;2022-12-07T03:14:00;98293.69;;;2.90;nan
54936;BME280;40838;50.676;7.838;2022-12-07T03:16:33;98292.16;;;3.03;nan
54936;BME280;40838;50.676;7.838;2022-12-07T03:19:06;98285.72;;;2.99;nan
54936;BME280;40838;50.676;7.838;2022-12-07T03:21:37;98287.94;;;3.02;nan
54936;BME280;40838;50.676;7.838;2022-12-07T03:24:07;98284.88;;;2.98;nan
54936;BME280;40838;50.676;7.838;2022-12-07T03:26:44;98280.88;;;2.95;nan
54936;BME280;40838;50.676;7.838;2022-12-07T03:29:19;98282.25;;;2.91;nan
54936;BME280;40838;50.676;7.838;2022-12-07T03:31:51;98277.44;;;2.95;nan
54936;BME280;40838;50.676;7.838;2022-12-07T03:34:26;98272.06;;;2.97;nan
54936;BME280;40838;50.676;7.838;2022-12-07T03:37:01;98278.59;;;2.86;nan
54936;BME280;40838;50.676;7.838;2022-12-07T03:39:34;98275.06;;;2.93;nan
54936;BME280;40838;50.676;7.838;2022-12-07T03:42:05;98276.78;;;2.86;nan
54936;BME280;40838;50.676;7.838;2022-12-07T03:44:34;98270.59;;;2.87;nan
54936;BME280;40838;50.676;7.838;2022-12-07T03:47:04;98276.19;;;2.84;nan
54936;BME280;40838;50.676;7.838;2022-12-07T03:49:39;98274.00;;;2.88;nan
54936;BME280;40838;50.676;7.838;2022-12-07T03:52:12;98276.41;;;2.89;nan
54936;BME280;40838;50.676;7.838;2022-12-07T03:54:48;98288.88;;;2.94;nan
54936;BME280;40838;50.676;7.838;2022-12-07T03:57:18;98281.47;;;2.98;nan
54936;BME280;40838;50.676;7.838;2022-12-07T03:59:48;98285.09;;;2.97;nan
54936;BME280;40838;50.676;7.838;2022-12-07T04:02:17;98277.91;;;2.99;nan
54936;BME280;40838;50.676;7.838;2022-12-07T04:04:45;98278.47;;;2.94;nan
54936;BME280;40838;50.676;7.838;2022-12-07T04:07:11;98277.41;;;2.88;nan
54936;BME280;40838;50.676;7.838;2022-12-07T04:09:39;98267.47;;;2.99;nan
54936;BME280;40838;50.676;7.838;2022-12-07T04:12:12;98277.91;;;2.99;nan
54936;BME280;40838;50.676;7.838;2022-12-07T04:14:39;98278.06;;;2.97;nan
54936;BME280;40838;50.676;7.838;2022-12-07T04:17:08;98271.06;;;2.98;nan
54936;BME280;40838;50.676;7.838;2022-12-07T04:19:37;98273.50;;;2.99;nan
54936;BME280;40838;50.676;7.838;2022-12-07T04:22:05;98275.69;;;2.95;nan
54936;BME280;40838;50.676;7.838;2022-12-07T04:24:35;98272.03;;;2.90;nan
54936;BME280;40838;50.676;7.838;2022-12-07T04:27:02;98279.47;;;2.93;nan
54936;BME280;40838;50.676;7.838;2022-12-07T04:29:29;98279.84;;;2.90;nan
54936;BME280;40838;50.676;7.838;2022-12-07T04:31:55;98276.47;;;2.96;nan
54936;BME280;40838;50.676;7.838;2022-12-07T04:34:22;98274.44;;;2.91;nan
54936;BME280;40838;50.676;7.838;2022-12-07T04:36:51;98267.41;;;2.92;nan
54936;BME280;40838;50.676;7.838;2022-12-07T04:39:20;98265.19;;;2.89;nan
54936;BME280;40838;50.676;7.838;2022-12-07T04:41:48;98267.84;;;2.95;nan
54936;BME280;40838;50.676;7.838;2022-12-07T04:44:15;98276.09;;;2.99;nan
54936;BME280;40838;50.676;7.838;2022-12-07T04:46:43;98278.31;;;3.02;nan
54936;BME280;40838;50.676;7.838;2022-12-07T04:49:10;98272.09;;;3.03;nan
54936;BME280;40838;50.676;7.838;2022-12-07T04:51:37;98273.66;;;2.98;nan
54936;BME280;40838;50.676;7.838;2022-12-07T04:54:06;98273.91;;;3.03;nan
54936;BME280;40838;50.676;7.838;2022-12-07T04:56:33;98265.47;;;3.01;nan
54936;BME280;40838;50.676;7.838;2022-12-07T04:59:01;98267.69;;;3.04;nan
54936;BME280;40838;50.676;7.838;2022-12-07T05:01:28;98262.66;;;2.95;nan
54936;BME280;40838;50.676;7.838;2022-12-07T05:03:55;98269.25;;;2.98;nan
54936;BME280;40838;50.676;7.838;2022-12-07T05:06:22;98262.69;;;3.02;nan
54936;BME280;40838;50.676;7.838;2022-12-07T05:08:49;98268.69;;;3.03;nan
54936;BME280;40838;50.676;7.838;2022-12-07T05:11:18;98269.69;;;3.02;nan
54936;BME280;40838;50.676;7.838;2022-12-07T05:13:58;98260.50;;;3.06;nan
54936;BME280;40838;50.676;7.838;2022-12-07T05:16:25;98268.50;;;3.04;nan
54936;BME280;40838;50.676;7.838;2022-12-07T05:19:06;98269.31;;;3.05;nan
54936;BME280;40838;50.676;7.838;2022-12-07T05:21:33;98270.69;;;3.01;nan
54936;BME280;40838;50.676;7.838;2022-12-07T05:24:00;98263.47;;;3.03;nan
54936;BME280;40838;50.676;7.838;2022-12-07T05:26:29;98272.13;;;3.10;nan
54936;BME280;40838;50.676;7.838;2022-12-07T05:28:57;98270.53;;;3.09;nan
54936;BME280;40838;50.676;7.838;2022-12-07T05:31:25;98269.31;;;3.05;nan
54936;BME280;40838;50.676;7.838;2022-12-07T05:33:53;98275.72;;;3.02;nan
54936;BME280;40838;50.676;7.838;2022-12-07T05:36:20;98277.53;;;3.02;nan
54936;BME280;40838;50.676;7.838;2022-12-07T05:38:47;98269.47;;;2.97;nan
54936;BME280;40838;50.676;7.838;2022-12-07T05:41:15;98273.66;;;2.98;nan
54936;BME280;40838;50.676;7.838;2022-12-07T05:44:01;98270.69;;;3.01;nan
54936;BME280;40838;50.676;7.838;2022-12-07T05:46:28;98278.69;;;2.99;nan
54936;BME280;40838;50.676;7.838;2022-12-07T05:48:55;98279.75;;;3.05;nan
54936;BME280;40838;50.676;7.838;2022-12-07T05:51:22;98281.19;;;3.14;nan
54936;BME280;40838;50.676;7.838;2022-12-07T05:53:48;98276.00;;;3.14;nan
54936;BME280;40838;50.676;7.838;2022-12-07T05:56:15;98279.13;;;3.03;nan
54936;BME280;40838;50.676;7.838;2022-12-07T05:58:42;98273.09;;;3.02;nan
54936;BME280;40838;50.676;7.838;2022-12-07T06:01:28;98273.50;;;2.99;nan
54936;BME280;40838;50.676;7.838;2022-12-07T06:03:55;98270.50;;;3.02;nan
54936;BME280;40838;50.676;7.838;2022-12-07T06:06:23;98278.31;;;3.02;nan
54936;BME280;40838;50.676;7.838;2022-12-07T06:08:50;98282.16;;;3.06;nan
54936;BME280;40838;50.676;7.838;2022-12-07T06:11:16;98282.34;;;3.05;nan
54936;BME280;40838;50.676;7.838;2022-12-07T06:14:01;98282.91;;;3.00;nan
54936;BME280;40838;50.676;7.838;2022-12-07T06:16:29;98279.09;;;2.96;nan
54936;BME280;40838;50.676;7.838;2022-12-07T06:18:56;98288.53;;;3.04;nan
54936;BME280;40838;50.676;7.838;2022-12-07T06:21:23;98275.69;;;2.95;nan
54936;BME280;40838;50.676;7.838;2022-12-07T06:23:51;98277.84;;;2.92;nan
54936;BME280;40838;50.676;7.838;2022-12-07T06:26:17;98289.69;;;2.94;nan
54936;BME280;40838;50.676;7.838;2022-12-07T06:28:44;98289.53;;;3.03;nan
54936;BME280;40838;50.676;7.838;2022-12-07T06:31:11;98284.97;;;2.83;nan
54936;BME280;40838;50.676;7.838;2022-12-07T06:33:40;98289.69;;;2.94;nan
54936;BME280;40838;50.676;7.838;2022-12-07T06:36:07;98277.41;;;2.88;nan
54936;BME280;40838;50.676;7.838;2022-12-07T06:38:34;98289.25;;;2.91;nan
54936;BME280;40838;50.676;7.838;2022-12-07T06:41:01;98292.25;;;2.88;nan
54936;BME280;40838;50.676;7.838;2022-12-07T06:43:28;98297.63;;;2.86;nan
54936;BME280;40838;50.676;7.838;2022-12-07T06:45:55;98289.63;;;2.88;nan
54936;BME280;40838;50.676;7.838;2022-12-07T06:48:22;98291.59;;;2.79;nan
54936;BME280;40838;50.676;7.838;2022-12-07T06:50:50;98293.38;;;2.79;nan
54936;BME280;40838;50.676;7.838;2022-12-07T06:53:17;98300.19;;;2.80;nan
54936;BME280;40838;50.676;7.838;2022-12-07T06:55:44;98298.63;;;2.85;nan
54936;BME280;40838;50.676;7.838;2022-12-07T06:58:10;98300.69;;;2.90;nan
54936;BME280;40838;50.676;7.838;2022-12-07T07:00:37;98298.63;;;2.85;nan
54936;BME280;40838;50.676;7.838;2022-12-07T07:03:07;98297.84;;;2.85;nan
54936;BME280;40838;50.676;7.838;2022-12-07T07:05:34;98303.59;;;2.80;nan
54936;BME280;40838;50.676;7.838;2022-12-07T07:08:02;98308.66;;;2.82;nan
54936;BME280;40838;50.676;7.838;2022-12-07T07:10:30;98297.78;;;2.78;nan
54936;BME280;40838;50.676;7.838;2022-12-07T07:12:57;98302.69;;;2.88;nan
54936;BME280;40838;50.676;7.838;2022-12-07T07:15:24;98312.31;;;2.87;nan
54936;BME280;40838;50.676;7.838;2022-12-07T07:17:52;98309.19;;;2.77;nan
54936;BME280;40838;50.676;7.838;2022-12-07T07:20:19;98316.25;;;2.83;nan
54936;BME280;40838;50.676;7.838;2022-12-07T07:22:46;98302.03;;;2.86;nan
54936;BME280;40838;50.676;7.838;2022-12-07T07:25:14;98307.50;;;2.91;nan
54936;BME280;40838;50.676;7.838;2022-12-07T07:27:41;98313.19;;;2.73;nan
54936;BME280;40838;50.676;7.838;2022-12-07T07:30:09;98308.59;;;2.75;nan
54936;BME280;40838;50.676;7.838;2022-12-07T07:32:36;98312.44;;;2.79;nan
54936;BME280;40838;50.676;7.838;2022-12-07T07:35:04;98312.19;;;2.74;nan
54936;BME280;40838;50.676;7.838;2022-12-07T07:37:31;98321.84;;;2.80;nan
54936;BME280;40838;50.676;7.838;2022-12-07T07:39:58;98317.22;;;2.76;nan
54936;BME280;40838;50.676;7.838;2022-12-07T07:42:26;98319.69;;;2.84;nan
54936;BME280;40838;50.676;7.838;2022-12-07T07:44:53;98323.28;;;2.83;nan
54936;BME280;40838;50.676;7.838;2022-12-07T07:47:20;98314.22;;;2.79;nan
54936;BME280;40838;50.676;7.838;2022-12-07T07:49:47;98316.09;;;2.85;nan
54936;BME280;40838;50.676;7.838;2022-12-07T07:52:14;98318.69;;;2.85;nan
54936;BME280;40838;50.676;7.838;2022-12-07T07:54:40;98312.50;;;2.92;nan
54936;BME280;40838;50.676;7.838;2022-12-07T07:57:09;98321.34;;;2.91;nan
54936;BME280;40838;50.676;7.838;2022-12-07T07:59:39;98313.81;;;2.75;nan
54936;BME280;40838;50.676;7.838;2022-12-07T08:02:09;98316.50;;;2.88;nan
54936;BME280;40838;50.676;7.838;2022-12-07T08:04:40;98317.38;;;2.95;nan
54936;BME280;40838;50.676;7.838;2022-12-07T08:07:07;98322.16;;;3.55;nan
54936;BME280;40838;50.676;7.838;2022-12-07T08:09:34;98313.44;;;3.34;nan
54936;BME280;40838;50.676;7.838;2022-12-07T08:12:00;98315.66;;;3.37;nan
54936;BME280;40838;50.676;7.838;2022-12-07T08:14:28;98314.31;;;3.48;nan
54936;BME280;40838;50.676;7.838;2022-12-07T08:16:56;98315.03;;;3.35;nan
54936;BME280;40838;50.676;7.838;2022-12-07T08:19:23;98308.56;;;3.25;nan
54936;BME280;40838;50.676;7.838;2022-12-07T08:21:51;98320.75;;;3.24;nan
54936;BME280;40838;50.676;7.838;2022-12-07T08:24:18;98311.88;;;3.47;nan
54936;BME280;40838;50.676;7.838;2022-12-07T08:26:44;98310.34;;;3.59;nan
54936;BME280;40838;50.676;7.838;2022-12-07T08:29:11;98315.25;;;3.40;nan
54936;BME280;40838;50.676;7.838;2022-12-07T08:31:38;98314.53;;;3.53;nan
54936;BME280;40838;50.676;7.838;2022-12-07T08:34:06;98312.75;;;3.26;nan
54936;BME280;40838;50.676;7.838;2022-12-07T08:36:33;98327.56;;;2.90;nan
54936;BME280;40838;50.676;7.838;2022-12-07T08:39:00;98321.09;;;2.86;nan
54936;BME280;40838;50.676;7.838;2022-12-07T08:41:27;98315.56;;;2.96;nan
54936;BME280;40838;50.676;7.838;2022-12-07T08:43:54;98325.03;;;3.04;nan
54936;BME280;40838;50.676;7.838;2022-12-07T08:46:23;98320.75;;;3.24;nan
54936;BME280;40838;50.676;7.838;2022-12-07T08:48:54;98328.59;;;3.24;nan
54936;BME280;40838;50.676;7.838;2022-12-07T08:51:23;98319.50;;;3.13;nan
54936;BME280;40838;50.676;7.838;2022-12-07T08:53:51;98319.06;;;3.10;nan
54936;BME280;40838;50.676;7.838;2022-12-07T08:56:19;98322.16;;;3.20;nan
54936;BME280;40838;50.676;7.838;2022-12-07T08:58:47;98320.63;;;3.32;nan
54936;BME280;40838;50.676;7.838;2022-12-07T09:01:14;98324.25;;;3.31;nan
54936;BME280;40838;50.676;7.838;2022-12-07T09:03:41;98321.63;;;3.31;nan
54936;BME280;40838;50.676;7.838;2022-12-07T09:06:08;98326.94;;;3.16;nan
54936;BME280;40838;50.676;7.838;2022-12-07T09:08:39;98323.16;;;3.19;nan
54936;BME280;40838;50.676;7.838;2022-12-07T09:11:07;98329.56;;;3.16;nan
54936;BME280;40838;50.676;7.838;2022-12-07T09:13:34;98332.44;;;3.28;nan
54936;BME280;40838;50.676;7.838;2022-12-07T09:16:02;98328.94;;;3.14;nan
54936;BME280;40838;50.676;7.838;2022-12-07T09:18:29;98331.78;;;3.20;nan
54936;BME280;40838;50.676;7.838;2022-12-07T09:20:56;98338.25;;;3.30;nan
54936;BME280;40838;50.676;7.838;2022-12-07T09:23:23;98329.03;;;3.28;nan
54936;BME280;40838;50.676;7.838;2022-12-07T09:25:51;98329.59;;;3.23;nan
54936;BME280;40838;50.676;7.838;2022-12-07T09:28:18;98334.69;;;3.10;nan
54936;BME280;40838;50.676;7.838;2022-12-07T09:30:45;98332.56;;;3.13;nan
54936;BME280;40838;50.676;7.838;2022-12-07T09:33:13;98339.22;;;3.23;nan
54936;BME280;40838;50.676;7.838;2022-12-07T09:35:44;98334.53;;;3.11;nan
54936;BME280;40838;50.676;7.838;2022-12-07T09:38:11;98335.44;;;3.25;nan
54936;BME280;40838;50.676;7.838;2022-12-07T09:40:38;98325.81;;;3.26;nan
54936;BME280;40838;50.676;7.838;2022-12-07T09:43:12;98332.81;;;3.25;nan
54936;BME280;40838;50.676;7.838;2022-12-07T09:45:39;98329.59;;;3.23;nan
54936;BME280;40838;50.676;7.838;2022-12-07T09:48:16;98321.34;;;3.20;nan
54936;BME280;40838;50.676;7.838;2022-12-07T09:50:47;98324.13;;;3.18;nan
54936;BME280;40838;50.676;7.838;2022-12-07T09:53:20;98327.03;;;3.30;nan
54936;BME280;40838;50.676;7.838;2022-12-07T09:55:49;98322.94;;;3.49;nan
54936;BME280;40838;50.676;7.838;2022-12-07T09:58:21;98314.22;;;3.70;nan
54936;BME280;40838;50.676;7.838;2022-12-07T10:00:49;98313.81;;;3.73;nan
54936;BME280;40838;50.676;7.838;2022-12-07T10:03:17;98312.00;;;3.67;nan
54936;BME280;40838;50.676;7.838;2022-12-07T10:05:46;98309.41;;;3.73;nan
54936;BME280;40838;50.676;7.838;2022-12-07T10:08:14;98310.81;;;3.76;nan
54936;BME280;40838;50.676;7.838;2022-12-07T10:10:44;98312.00;;;3.73;nan
54936;BME280;40838;50.676;7.838;2022-12-07T10:13:12;98307.47;;;3.47;nan
54936;BME280;40838;50.676;7.838;2022-12-07T10:15:49;98309.09;;;3.48;nan
54936;BME280;40838;50.676;7.838;2022-12-07T10:18:29;98314.59;;;3.67;nan
54936;BME280;40838;50.676;7.838;2022-12-07T10:24:00;98306.38;;;3.28;nan
54936;BME280;40838;50.676;7.838;2022-12-07T10:26:31;98306.94;;;3.24;nan
54936;BME280;40838;50.676;7.838;2022-12-07T10:29:00;98309.75;;;3.22;nan
54936;BME280;40838;50.676;7.838;2022-12-07T10:31:29;98302.97;;;3.28;nan
54936;BME280;40838;50.676;7.838;2022-12-07T10:33:58;98306.03;;;3.45;nan
54936;BME280;40838;50.676;7.838;2022-12-07T10:36:33;98300.63;;;3.39;nan
54936;BME280;40838;50.676;7.838;2022-12-07T10:39:02;98293.09;;;3.58;nan
54936;BME280;40838;50.676;7.838;2022-12-07T10:41:30;98298.72;;;3.61;nan
54936;BME280;40838;50.676;7.838;2022-12-07T10:43:57;98300.13;;;3.64;nan
54936;BME280;40838;50.676;7.838;2022-12-07T10:49:51;98288.13;;;3.28;nan
54936;BME280;40838;50.676;7.838;2022-12-07T10:52:30;98283.50;;;3.30;nan
54936;BME280;40838;50.676;7.838;2022-12-07T10:55:11;98280.44;;;3.55;nan
54936;BME280;40838;50.676;7.838;2022-12-07T10:57:51;98270.34;;;4.06;nan
54936;BME280;40838;50.676;7.838;2022-12-07T11:00:21;98270.72;;;3.83;nan
54936;BME280;40838;50.676;7.838;2022-12-07T11:05:56;98270.28;;;3.80;nan
54936;BME280;40838;50.676;7.838;2022-12-07T11:08:40;98278.72;;;3.75;nan
54936;BME280;40838;50.676;7.838;2022-12-07T11:11:13;98262.44;;;3.73;nan
54936;BME280;40838;50.676;7.838;2022-12-07T11:13:48;98259.84;;;3.80;nan
54936;BME280;40838;50.676;7.838;2022-12-07T11:16:47;98260.69;;;3.87;nan
54936;BME280;40838;50.676;7.838;2022-12-07T11:19:28;98256.44;;;3.79;nan
54936;BME280;40838;50.676;7.838;2022-12-07T11:22:06;98246.53;;;3.68;nan
54936;BME280;40838;50.676;7.838;2022-12-07T11:24:40;98245.97;;;3.73;nan
54936;BME280;40838;50.676;7.838;2022-12-07T11:27:22;98245.41;;;3.84;nan
54936;BME280;40838;50.676;7.838;2022-12-07T11:30:02;98243.03;;;4.09;nan
54936;BME280;40838;50.676;7.838;2022-12-07T11:32:45;98241.84;;;4.12;nan
54936;BME280;40838;50.676;7.838;2022-12-07T11:35:22;98232.22;;;4.25;nan
54936;BME280;40838;50.676;7.838;2022-12-07T11:37:57;98235.06;;;4.37;nan
54936;BME280;40838;50.676;7.838;2022-12-07T11:40:31;98221.78;;;4.59;nan
54936;BME280;40838;50.676;7.838;2022-12-07T11:43:05;98226.22;;;4.45;nan
54936;BME280;40838;50.676;7.838;2022-12-07T11:45:41;98221.00;;;4.71;nan
54936;BME280;40838;50.676;7.838;2022-12-07T11:48:15;98214.38;;;4.49;nan
54936;BME280;40838;50.676;7.838;2022-12-07T11:50:48;98214.97;;;4.24;nan
54936;BME280;40838;50.676;7.838;2022-12-07T11:53:20;98215.75;;;4.18;nan
54936;BME280;40838;50.676;7.838;2022-12-07T11:55:54;98220.38;;;4.29;nan
54936;BME280;40838;50.676;7.838;2022-12-07T11:58:40;98210.34;;;4.33;nan
54936;BME280;40838;50.676;7.838;2022-12-07T12:01:15;98213.56;;;4.22;nan
54936;BME280;40838;50.676;7.838;2022-12-07T12:03:47;98208.13;;;4.10;nan
54936;BME280;40838;50.676;7.838;2022-12-07T12:06:15;98208.31;;;4.15;nan
54936;BME280;40838;50.676;7.838;2022-12-07T12:08:46;98211.88;;;3.94;nan
54936;BME280;40838;50.676;7.838;2022-12-07T12:11:25;98216.41;;;3.59;nan
54936;BME280;40838;50.676;7.838;2022-12-07T12:14:14;98210.78;;;3.07;nan
54936;BME280;40838;50.676;7.838;2022-12-07T12:16:58;98216.72;;;3.01;nan
54936;BME280;40838;50.676;7.838;2022-12-07T12:19:33;98217.78;;;3.07;nan
54936;BME280;40838;50.676;7.838;2022-12-07T12:22:09;98214.38;;;3.13;nan
54936;BME280;40838;50.676;7.838;2022-12-07T12:24:41;98214.78;;;3.10;nan
54936;BME280;40838;50.676;7.838;2022-12-07T12:27:19;98210.25;;;3.25;nan
54936;BME280;40838;50.676;7.838;2022-12-07T12:29:53;98211.31;;;3.31;nan
54936;BME280;40838;50.676;7.838;2022-12-07T12:32:22;98207.16;;;3.56;nan
54936;BME280;40838;50.676;7.838;2022-12-07T12:35:21;98199.66;;;4.08;nan
54936;BME280;40838;50.676;7.838;2022-12-07T12:37:52;98189.03;;;4.16;nan
54936;BME280;40838;50.676;7.838;2022-12-07T12:40:43;98191.81;;;4.68;nan
54936;BME280;40838;50.676;7.838;2022-12-07T12:43:47;98186.19;;;4.71;nan
54936;BME280;40838;50.676;7.838;2022-12-07T12:46:49;98183.94;;;5.01;nan
54936;BME280;40838;50.676;7.838;2022-12-07T12:49:35;98183.81;;;4.63;nan
54936;BME280;40838;50.676;7.838;2022-12-07T12:55:20;98180.16;;;4.84;nan
54936;BME280;40838;50.676;7.838;2022-12-07T13:03:56;98166.59;;;5.13;nan
54936;BME280;40838;50.676;7.838;2022-12-07T13:06:34;98171.56;;;4.30;nan
54936;BME280;40838;50.676;7.838;2022-12-07T13:09:03;98165.53;;;4.09;nan
54936;BME280;40838;50.676;7.838;2022-12-07T13:11:32;98168.13;;;4.03;nan
54936;BME280;40838;50.676;7.838;2022-12-07T13:14:37;98156.09;;;4.02;nan
54936;BME280;40838;50.676;7.838;2022-12-07T13:17:08;98161.69;;;3.85;nan
54936;BME280;40838;50.676;7.838;2022-12-07T13:19:58;98167.72;;;3.99;nan
54936;BME280;40838;50.676;7.838;2022-12-07T13:22:52;98170.50;;;3.78;nan
54936;BME280;40838;50.676;7.838;2022-12-07T13:25:29;98178.84;;;3.47;nan
54936;BME280;40838;50.676;7.838;2022-12-07T13:28:01;98192.31;;;3.09;nan
54936;BME280;40838;50.676;7.838;2022-12-07T13:30:29;98188.88;;;2.67;nan
54936;BME280;40838;50.676;7.838;2022-12-07T13:32:58;98195.00;;;2.53;nan
54936;BME280;40838;50.676;7.838;2022-12-07T13:35:34;98200.31;;;2.44;nan
54936;BME280;40838;50.676;7.838;2022-12-07T13:38:05;98191.75;;;2.01;nan
54936;BME280;40838;50.676;7.838;2022-12-07T13:40:32;98186.28;;;2.17;nan
54936;BME280;40838;50.676;7.838;2022-12-07T13:43:01;98188.69;;;2.19;nan
54936;BME280;40838;50.676;7.838;2022-12-07T13:45:30;98188.94;;;2.24;nan
54936;BME280;40838;50.676;7.838;2022-12-07T13:48:21;98184.13;;;1.99;nan
54936;BME280;40838;50.676;7.838;2022-12-07T13:50:57;98189.34;;;1.99;nan
54936;BME280;40838;50.676;7.838;2022-12-07T13:53:24;98185.25;;;1.90;nan
54936;BME280;40838;50.676;7.838;2022-12-07T13:55:53;98188.94;;;1.81;nan
54936;BME280;40838;50.676;7.838;2022-12-07T13:58:21;98184.81;;;1.87;nan
54936;BME280;40838;50.676;7.838;2022-12-07T14:00:49;98181.34;;;2.01;nan
54936;BME280;40838;50.676;7.838;2022-12-07T14:03:31;98176.72;;;2.24;nan
54936;BME280;40838;50.676;7.838;2022-12-07T14:06:14;98166.78;;;1.85;nan
54936;BME280;40838;50.676;7.838;2022-12-07T14:08:42;98176.13;;;2.01;nan
54936;BME280;40838;50.676;7.838;2022-12-07T14:11:16;98166.16;;;2.04;nan